sensor_id;sensor_type;location;lat;lon;timestamp;pressure;altitude;pressure_sealevel;temperature;humidity
41222;BME280;26952;42.884;23.918;2023-03-26T00:00:44;95300.25;;;11.17;100.00
41222;BME280;26952;42.884;23.918;2023-03-26T00:03:13;95281.19;;;11.07;100.00
41222;BME280;26952;42.884;23.918;2023-03-26T00:05:40;95288.88;;;11.23;100.00
41222;BME280;26952;42.884;23.918;2023-03-26T00:08:07;95278.28;;;11.23;100.00
41222;BME280;26952;42.884;23.918;2023-03-26T00:10:37;95282.00;;;11.29;100.00
41222;BME280;26952;42.884;23.918;2023-03-26T00:13:06;95279.28;;;11.23;100.00
41222;BME280;26952;42.884;23.918;2023-03-26T00:15:33;95315.94;;;11.40;100.00
41222;BME280;26952;42.884;23.918;2023-03-26T00:17:59;95301.31;;;11.23;100.00
41222;BME280;26952;42.884;23.918;2023-03-26T00:20:26;95310.25;;;11.01;100.00
41222;BME280;26952;42.884;23.918;2023-03-26T00:22:52;95300.03;;;10.98;100.00
41222;BME280;26952;42.884;23.918;2023-03-26T00:25:19;95296.16;;;10.94;100.00
41222;BME280;26952;42.884;23.918;2023-03-26T00:27:45;95319.47;;;11.05;100.00
41222;BME280;26952;42.884;23.918;2023-03-26T00:30:11;95302.50;;;10.99;100.00
41222;BME280;26952;42.884;23.918;2023-03-26T00:32:37;95316.63;;;11.06;100.00
41222;BME280;26952;42.884;23.918;2023-03-26T00:35:03;95310.13;;;10.88;100.00
41222;BME280;26952;42.884;23.918;2023-03-26T00:37:29;95301.19;;;10.89;100.00
41222;BME280;26952;42.884;23.918;2023-03-26T00:39:56;95320.84;;;11.01;100.00
41222;BME280;26952;42.884;23.918;2023-03-26T00:42:27;95304.97;;;11.01;100.00
41222;BME280;26952;42.884;23.918;2023-03-26T00:44:53;95321.38;;;11.11;100.00
41222;BME280;26952;42.884;23.918;2023-03-26T00:47:26;95315.16;;;11.04;100.00
41222;BME280;26952;42.884;23.918;2023-03-26T00:49:52;95314.56;;;11.02;100.00
41222;BME280;26952;42.884;23.918;2023-03-26T00:52:17;95316.81;;;11.05;100.00
41222;BME280;26952;42.884;23.918;2023-03-26T00:54:47;95311.47;;;10.98;100.00
41222;BME280;26952;42.884;23.918;2023-03-26T00:57:14;95305.19;;;10.85;100.00
41222;BME280;26952;42.884;23.918;2023-03-26T00:59:40;95308.50;;;10.87;100.00
41222;BME280;26952;42.884;23.918;2023-03-26T01:02:07;95316.38;;;11.01;100.00
41222;BME280;26952;42.884;23.918;2023-03-26T01:04:36;95293.97;;;11.04;100.00
41222;BME280;26952;42.884;23.918;2023-03-26T01:07:09;95283.25;;;10.91;100.00
41222;BME280;26952;42.884;23.918;2023-03-26T01:09:40;95298.78;;;10.94;100.00
41222;BME280;26952;42.884;23.918;2023-03-26T01:12:12;95294.69;;;10.91;100.00
41222;BME280;26952;42.884;23.918;2023-03-26T01:14:40;95291.88;;;10.78;100.00
41222;BME280;26952;42.884;23.918;2023-03-26T01:17:06;95290.16;;;10.85;100.00
41222;BME280;26952;42.884;23.918;2023-03-26T01:19:46;95303.94;;;10.81;100.00
41222;BME280;26952;42.884;23.918;2023-03-26T01:22:16;95286.53;;;10.72;100.00
41222;BME280;26952;42.884;23.918;2023-03-26T01:24:43;95296.59;;;10.62;100.00
41222;BME280;26952;42.884;23.918;2023-03-26T01:27:19;95301.34;;;10.66;100.00
41222;BME280;26952;42.884;23.918;2023-03-26T01:29:55;95303.81;;;10.68;100.00
41222;BME280;26952;42.884;23.918;2023-03-26T01:38:00;95310.88;;;10.46;100.00
41222;BME280;26952;42.884;23.918;2023-03-26T01:40:40;95317.28;;;10.37;100.00
41222;BME280;26952;42.884;23.918;2023-03-26T01:43:42;95311.06;;;10.30;100.00
41222;BME280;26952;42.884;23.918;2023-03-26T01:46:10;95301.22;;;10.24;100.00
41222;BME280;26952;42.884;23.918;2023-03-26T01:48:42;95307.41;;;10.31;100.00
41222;BME280;26952;42.884;23.918;2023-03-26T01:51:09;95294.75;;;10.27;100.00
41222;BME280;26952;42.884;23.918;2023-03-26T01:53:41;95304.66;;;10.39;100.00
41222;BME280;26952;42.884;23.918;2023-03-26T02:01:21;95302.38;;;10.51;100.00
41222;BME280;26952;42.884;23.918;2023-03-26T02:04:10;95244.97;;;10.16;100.00
41222;BME280;26952;42.884;23.918;2023-03-26T02:06:46;95285.63;;;10.44;100.00
41222;BME280;26952;42.884;23.918;2023-03-26T02:09:19;95287.78;;;10.55;100.00
41222;BME280;26952;42.884;23.918;2023-03-26T02:11:48;95293.44;;;10.52;100.00
41222;BME280;26952;42.884;23.918;2023-03-26T02:14:15;95301.00;;;10.55;100.00
41222;BME280;26952;42.884;23.918;2023-03-26T02:16:40;95308.94;;;10.55;100.00
41222;BME280;26952;42.884;23.918;2023-03-26T02:19:11;95316.59;;;10.64;100.00
41222;BME280;26952;42.884;23.918;2023-03-26T02:21:39;95317.41;;;10.65;100.00
41222;BME280;26952;42.884;23.918;2023-03-26T02:24:05;95309.81;;;10.62;100.00
41222;BME280;26952;42.884;23.918;2023-03-26T02:26:33;95315.09;;;10.62;100.00
41222;BME280;26952;42.884;23.918;2023-03-26T02:29:00;95313.94;;;10.64;100.00
41222;BME280;26952;42.884;23.918;2023-03-26T02:31:26;95327.88;;;10.73;100.00
41222;BME280;26952;42.884;23.918;2023-03-26T02:33:52;95313.84;;;10.58;100.00
41222;BME280;26952;42.884;23.918;2023-03-26T02:36:20;95318.22;;;10.65;100.00
41222;BME280;26952;42.884;23.918;2023-03-26T02:38:49;95296.44;;;10.49;100.00
41222;BME280;26952;42.884;23.918;2023-03-26T02:41:16;95314.78;;;10.65;100.00
41222;BME280;26952;42.884;23.918;2023-03-26T02:43:41;95320.66;;;10.67;100.00
41222;BME280;26952;42.884;23.918;2023-03-26T02:46:07;95329.06;;;10.70;100.00
41222;BME280;26952;42.884;23.918;2023-03-26T02:48:32;95320.13;;;10.71;100.00
41222;BME280;26952;42.884;23.918;2023-03-26T02:51:02;95319.72;;;10.53;100.00
41222;BME280;26952;42.884;23.918;2023-03-26T02:53:28;95330.00;;;10.63;100.00
41222;BME280;26952;42.884;23.918;2023-03-26T02:55:54;95336.81;;;10.72;100.00
41222;BME280;26952;42.884;23.918;2023-03-26T02:58:20;95331.06;;;10.68;100.00
41222;BME280;26952;42.884;23.918;2023-03-26T03:00:46;95332.38;;;10.58;100.00
41222;BME280;26952;42.884;23.918;2023-03-26T03:03:12;95353.91;;;10.69;100.00
41222;BME280;26952;42.884;23.918;2023-03-26T03:05:38;95352.25;;;10.54;100.00
41222;BME280;26952;42.884;23.918;2023-03-26T03:08:08;95357.03;;;10.58;100.00
41222;BME280;26952;42.884;23.918;2023-03-26T03:10:34;95351.66;;;10.52;100.00
41222;BME280;26952;42.884;23.918;2023-03-26T03:12:59;95370.53;;;10.63;99.42
41222;BME280;26952;42.884;23.918;2023-03-26T03:15:25;95359.31;;;10.47;100.00
41222;BME280;26952;42.884;23.918;2023-03-26T03:17:50;95357.03;;;10.44;100.00
41222;BME280;26952;42.884;23.918;2023-03-26T03:20:16;95370.81;;;10.39;100.00
41222;BME280;26952;42.884;23.918;2023-03-26T03:22:42;95363.69;;;10.40;100.00
41222;BME280;26952;42.884;23.918;2023-03-26T03:25:08;95384.13;;;10.46;100.00
41222;BME280;26952;42.884;23.918;2023-03-26T03:27:34;95390.31;;;10.53;100.00
41222;BME280;26952;42.884;23.918;2023-03-26T03:30:04;95395.06;;;10.43;100.00
41222;BME280;26952;42.884;23.918;2023-03-26T03:32:30;95411.84;;;10.21;94.98
41222;BME280;26952;42.884;23.918;2023-03-26T03:34:55;95404.91;;;10.20;100.00
41222;BME280;26952;42.884;23.918;2023-03-26T03:37:21;95401.09;;;10.08;100.00
41222;BME280;26952;42.884;23.918;2023-03-26T03:39:47;95391.28;;;9.94;100.00
41222;BME280;26952;42.884;23.918;2023-03-26T03:42:13;95392.41;;;9.76;100.00
41222;BME280;26952;42.884;23.918;2023-03-26T03:44:38;95389.13;;;9.74;100.00
41222;BME280;26952;42.884;23.918;2023-03-26T03:47:03;95390.56;;;9.62;100.00
41222;BME280;26952;42.884;23.918;2023-03-26T03:49:29;95396.75;;;9.69;100.00
41222;BME280;26952;42.884;23.918;2023-03-26T03:51:54;95393.91;;;9.56;100.00
41222;BME280;26952;42.884;23.918;2023-03-26T03:54:21;95389.56;;;9.41;100.00
41222;BME280;26952;42.884;23.918;2023-03-26T03:56:46;95383.47;;;9.40;100.00
41222;BME280;26952;42.884;23.918;2023-03-26T03:59:13;95389.63;;;9.33;100.00
41222;BME280;26952;42.884;23.918;2023-03-26T04:01:39;95402.38;;;9.29;100.00
41222;BME280;26952;42.884;23.918;2023-03-26T04:04:07;95406.31;;;9.33;100.00
41222;BME280;26952;42.884;23.918;2023-03-26T04:06:33;95374.25;;;9.14;100.00
41222;BME280;26952;42.884;23.918;2023-03-26T04:08:58;95402.31;;;9.37;100.00
41222;BME280;26952;42.884;23.918;2023-03-26T04:11:23;95416.69;;;9.35;100.00
41222;BME280;26952;42.884;23.918;2023-03-26T04:13:49;95412.81;;;9.23;100.00
41222;BME280;26952;42.884;23.918;2023-03-26T04:16:14;95428.47;;;9.24;100.00
41222;BME280;26952;42.884;23.918;2023-03-26T04:18:41;95413.63;;;9.23;100.00
41222;BME280;26952;42.884;23.918;2023-03-26T04:21:09;95429.72;;;9.36;100.00
41222;BME280;26952;42.884;23.918;2023-03-26T04:23:37;95428.72;;;9.37;100.00
41222;BME280;26952;42.884;23.918;2023-03-26T04:26:05;95426.84;;;9.46;100.00
41222;BME280;26952;42.884;23.918;2023-03-26T04:28:47;95421.50;;;9.31;100.00
41222;BME280;26952;42.884;23.918;2023-03-26T04:31:15;95442.56;;;9.39;100.00
41222;BME280;26952;42.884;23.918;2023-03-26T04:33:44;95454.34;;;9.37;100.00
41222;BME280;26952;42.884;23.918;2023-03-26T04:36:14;95452.66;;;9.36;100.00
41222;BME280;26952;42.884;23.918;2023-03-26T04:38:43;95447.38;;;9.36;100.00
41222;BME280;26952;42.884;23.918;2023-03-26T04:41:12;95459.50;;;9.30;100.00
41222;BME280;26952;42.884;23.918;2023-03-26T04:43:38;95468.88;;;9.33;100.00
41222;BME280;26952;42.884;23.918;2023-03-26T04:46:07;95473.22;;;9.18;100.00
41222;BME280;26952;42.884;23.918;2023-03-26T04:48:35;95469.44;;;9.20;100.00
41222;BME280;26952;42.884;23.918;2023-03-26T04:51:04;95466.66;;;9.14;100.00
41222;BME280;26952;42.884;23.918;2023-03-26T04:53:31;95473.41;;;9.16;100.00
41222;BME280;26952;42.884;23.918;2023-03-26T04:56:02;95474.09;;;9.10;100.00
41222;BME280;26952;42.884;23.918;2023-03-26T04:58:31;95494.25;;;9.03;100.00
41222;BME280;26952;42.884;23.918;2023-03-26T05:01:00;95492.59;;;9.10;100.00
41222;BME280;26952;42.884;23.918;2023-03-26T05:03:28;95484.19;;;9.07;100.00
41222;BME280;26952;42.884;23.918;2023-03-26T05:05:59;95502.28;;;9.18;100.00
41222;BME280;26952;42.884;23.918;2023-03-26T05:08:25;95491.72;;;9.18;100.00
41222;BME280;26952;42.884;23.918;2023-03-26T05:10:53;95498.66;;;8.80;100.00
41222;BME280;26952;42.884;23.918;2023-03-26T05:13:18;95500.94;;;8.91;100.00
41222;BME280;26952;42.884;23.918;2023-03-26T05:15:44;95501.06;;;8.98;100.00
41222;BME280;26952;42.884;23.918;2023-03-26T05:18:09;95517.66;;;9.06;100.00
41222;BME280;26952;42.884;23.918;2023-03-26T05:20:35;95517.31;;;9.17;100.00
41222;BME280;26952;42.884;23.918;2023-03-26T05:23:00;95511.28;;;9.31;100.00
41222;BME280;26952;42.884;23.918;2023-03-26T05:25:27;95500.94;;;9.52;100.00
41222;BME280;26952;42.884;23.918;2023-03-26T05:27:52;95513.44;;;9.81;100.00
41222;BME280;26952;42.884;23.918;2023-03-26T05:30:19;95507.50;;;10.10;100.00
41222;BME280;26952;42.884;23.918;2023-03-26T05:32:46;95502.00;;;10.34;100.00
41222;BME280;26952;42.884;23.918;2023-03-26T05:35:16;95507.56;;;10.39;100.00
41222;BME280;26952;42.884;23.918;2023-03-26T05:37:43;95501.41;;;10.24;100.00
41222;BME280;26952;42.884;23.918;2023-03-26T05:40:10;95508.00;;;10.28;100.00
41222;BME280;26952;42.884;23.918;2023-03-26T05:42:37;95513.16;;;10.44;95.51
41222;BME280;26952;42.884;23.918;2023-03-26T05:45:05;95513.38;;;10.86;100.00
41222;BME280;26952;42.884;23.918;2023-03-26T05:47:31;95512.25;;;11.24;99.56
41222;BME280;26952;42.884;23.918;2023-03-26T05:49:56;95489.19;;;11.39;93.88
41222;BME280;26952;42.884;23.918;2023-03-26T05:52:22;95518.84;;;11.99;91.85
41222;BME280;26952;42.884;23.918;2023-03-26T05:54:47;95524.22;;;12.06;81.25
41222;BME280;26952;42.884;23.918;2023-03-26T05:57:12;95519.22;;;12.45;85.02
41222;BME280;26952;42.884;23.918;2023-03-26T05:59:38;95513.47;;;12.90;83.78
41222;BME280;26952;42.884;23.918;2023-03-26T06:02:03;95487.25;;;13.15;82.99
41222;BME280;26952;42.884;23.918;2023-03-26T06:04:28;95495.41;;;13.60;79.39
41222;BME280;26952;42.884;23.918;2023-03-26T06:06:56;95496.34;;;14.00;74.12
41222;BME280;26952;42.884;23.918;2023-03-26T06:09:21;95498.66;;;14.36;71.37
41222;BME280;26952;42.884;23.918;2023-03-26T06:11:47;95500.91;;;14.78;71.52
41222;BME280;26952;42.884;23.918;2023-03-26T06:14:12;95484.25;;;15.08;68.93
41222;BME280;26952;42.884;23.918;2023-03-26T06:16:37;95491.75;;;15.44;64.60
41222;BME280;26952;42.884;23.918;2023-03-26T06:19:03;95491.53;;;15.90;61.97
41222;BME280;26952;42.884;23.918;2023-03-26T06:21:28;95501.97;;;16.29;57.67
41222;BME280;26952;42.884;23.918;2023-03-26T06:23:54;95497.75;;;16.46;53.91
41222;BME280;26952;42.884;23.918;2023-03-26T06:26:20;95517.72;;;16.68;54.45
41222;BME280;26952;42.884;23.918;2023-03-26T06:28:45;95502.13;;;16.65;54.52
41222;BME280;26952;42.884;23.918;2023-03-26T06:31:11;95511.44;;;15.87;51.49
41222;BME280;26952;42.884;23.918;2023-03-26T06:33:36;95518.44;;;15.88;55.85
41222;BME280;26952;42.884;23.918;2023-03-26T06:36:02;95519.28;;;16.20;52.28
41222;BME280;26952;42.884;23.918;2023-03-26T06:38:27;95526.16;;;16.65;55.11
41222;BME280;26952;42.884;23.918;2023-03-26T06:40:53;95533.22;;;16.84;49.89
41222;BME280;26952;42.884;23.918;2023-03-26T06:43:19;95524.66;;;16.76;44.87
41222;BME280;26952;42.884;23.918;2023-03-26T06:45:44;95530.56;;;16.22;46.69
41222;BME280;26952;42.884;23.918;2023-03-26T06:48:13;95514.19;;;16.43;48.13
41222;BME280;26952;42.884;23.918;2023-03-26T06:50:39;95531.25;;;16.73;44.78
41222;BME280;26952;42.884;23.918;2023-03-26T06:53:04;95532.00;;;17.05;43.55
41222;BME280;26952;42.884;23.918;2023-03-26T06:55:30;95530.03;;;17.36;43.45
41222;BME280;26952;42.884;23.918;2023-03-26T06:57:55;95524.50;;;16.95;42.72
41222;BME280;26952;42.884;23.918;2023-03-26T07:00:22;95526.22;;;16.83;43.67
41222;BME280;26952;42.884;23.918;2023-03-26T07:02:48;95511.81;;;17.27;44.84
41222;BME280;26952;42.884;23.918;2023-03-26T07:05:14;95513.03;;;16.88;44.21
41222;BME280;26952;42.884;23.918;2023-03-26T07:07:40;95521.25;;;16.87;43.23
41222;BME280;26952;42.884;23.918;2023-03-26T07:10:06;95519.56;;;16.36;45.05
41222;BME280;26952;42.884;23.918;2023-03-26T07:12:31;95526.78;;;16.67;43.69
41222;BME280;26952;42.884;23.918;2023-03-26T07:14:58;95517.94;;;16.91;44.72
41222;BME280;26952;42.884;23.918;2023-03-26T07:17:25;95515.41;;;17.39;42.52
41222;BME280;26952;42.884;23.918;2023-03-26T07:19:50;95517.41;;;17.43;43.71
41222;BME280;26952;42.884;23.918;2023-03-26T07:22:22;95475.16;;;16.91;44.16
41222;BME280;26952;42.884;23.918;2023-03-26T07:24:48;95492.78;;;16.99;42.06
41222;BME280;26952;42.884;23.918;2023-03-26T07:27:43;95505.22;;;16.87;41.12
41222;BME280;26952;42.884;23.918;2023-03-26T07:30:24;95501.16;;;17.02;42.48
41222;BME280;26952;42.884;23.918;2023-03-26T07:33:13;95486.19;;;17.37;43.51
41222;BME280;26952;42.884;23.918;2023-03-26T07:35:49;95505.81;;;17.67;40.27
41222;BME280;26952;42.884;23.918;2023-03-26T07:38:47;95500.28;;;17.98;42.51
41222;BME280;26952;42.884;23.918;2023-03-26T07:41:24;95507.25;;;17.99;39.55
41222;BME280;26952;42.884;23.918;2023-03-26T07:46:48;95498.06;;;18.37;37.80
41222;BME280;26952;42.884;23.918;2023-03-26T07:49:17;95491.16;;;18.59;40.72
41222;BME280;26952;42.884;23.918;2023-03-26T07:51:44;95489.47;;;18.35;37.41
41222;BME280;26952;42.884;23.918;2023-03-26T07:54:09;95483.47;;;18.21;38.19
41222;BME280;26952;42.884;23.918;2023-03-26T07:59:28;95478.59;;;17.52;43.32
41222;BME280;26952;42.884;23.918;2023-03-26T08:15:43;95494.09;;;18.28;39.31
41222;BME280;26952;42.884;23.918;2023-03-26T08:18:34;95489.38;;;17.82;35.46
41222;BME280;26952;42.884;23.918;2023-03-26T08:21:09;95492.94;;;18.24;36.50
41222;BME280;26952;42.884;23.918;2023-03-26T08:23:53;95494.75;;;17.28;35.73
41222;BME280;26952;42.884;23.918;2023-03-26T08:31:32;95479.72;;;18.52;33.88
41222;BME280;26952;42.884;23.918;2023-03-26T08:33:59;95442.72;;;17.89;35.83
41222;BME280;26952;42.884;23.918;2023-03-26T08:36:24;95459.16;;;17.63;38.58
41222;BME280;26952;42.884;23.918;2023-03-26T08:38:50;95469.66;;;17.04;38.29
41222;BME280;26952;42.884;23.918;2023-03-26T08:41:37;95469.66;;;16.37;38.65
41222;BME280;26952;42.884;23.918;2023-03-26T08:44:15;95481.69;;;16.95;39.51
41222;BME280;26952;42.884;23.918;2023-03-26T09:00:22;95450.34;;;17.38;37.95
41222;BME280;26952;42.884;23.918;2023-03-26T09:36:53;95445.94;;;18.51;36.36
41222;BME280;26952;42.884;23.918;2023-03-26T09:39:34;95448.31;;;17.99;34.61
41222;BME280;26952;42.884;23.918;2023-03-26T09:42:33;95445.00;;;17.02;36.08
41222;BME280;26952;42.884;23.918;2023-03-26T10:05:08;95397.53;;;19.03;32.79
41222;BME280;26952;42.884;23.918;2023-03-26T10:10:21;95398.34;;;18.58;32.66
41222;BME280;26952;42.884;23.918;2023-03-26T10:12:56;95388.31;;;18.42;34.19
41222;BME280;26952;42.884;23.918;2023-03-26T10:15:51;95396.06;;;18.09;32.65
41222;BME280;26952;42.884;23.918;2023-03-26T10:27:00;95385.66;;;18.76;32.13
41222;BME280;26952;42.884;23.918;2023-03-26T10:35:18;95368.69;;;19.22;29.82
41222;BME280;26952;42.884;23.918;2023-03-26T10:38:15;95379.31;;;19.17;29.18
41222;BME280;26952;42.884;23.918;2023-03-26T10:40:45;95367.97;;;19.15;27.33
41222;BME280;26952;42.884;23.918;2023-03-26T10:51:48;95342.41;;;18.27;30.73
41222;BME280;26952;42.884;23.918;2023-03-26T10:54:39;95333.94;;;19.04;31.87
41222;BME280;26952;42.884;23.918;2023-03-26T10:57:18;95329.94;;;19.58;31.42
41222;BME280;26952;42.884;23.918;2023-03-26T10:59:46;95327.44;;;19.84;31.30
41222;BME280;26952;42.884;23.918;2023-03-26T11:13:07;95315.00;;;19.22;29.92
41222;BME280;26952;42.884;23.918;2023-03-26T11:15:53;95318.81;;;18.98;31.76
41222;BME280;26952;42.884;23.918;2023-03-26T11:18:32;95315.53;;;18.45;30.10
41222;BME280;26952;42.884;23.918;2023-03-26T11:23:37;95302.31;;;18.32;32.19
41222;BME280;26952;42.884;23.918;2023-03-26T11:26:16;95300.69;;;18.31;30.62
41222;BME280;26952;42.884;23.918;2023-03-26T11:33:55;95302.31;;;18.32;31.23
41222;BME280;26952;42.884;23.918;2023-03-26T11:36:29;95295.09;;;17.98;31.71
41222;BME280;26952;42.884;23.918;2023-03-26T11:38:58;95295.09;;;18.44;30.70
41222;BME280;26952;42.884;23.918;2023-03-26T11:41:28;95276.66;;;18.70;29.02
41222;BME280;26952;42.884;23.918;2023-03-26T11:44:00;95287.03;;;17.74;29.19
41222;BME280;26952;42.884;23.918;2023-03-26T11:46:28;95294.69;;;17.71;29.70
41222;BME280;26952;42.884;23.918;2023-03-26T11:48:56;95282.38;;;17.93;29.99
41222;BME280;26952;42.884;23.918;2023-03-26T11:51:30;95269.94;;;18.22;32.68
41222;BME280;26952;42.884;23.918;2023-03-26T11:53:57;95271.69;;;18.39;29.79
41222;BME280;26952;42.884;23.918;2023-03-26T11:56:36;95263.16;;;18.08;29.67
41222;BME280;26952;42.884;23.918;2023-03-26T11:59:15;95277.16;;;18.10;32.08
41222;BME280;26952;42.884;23.918;2023-03-26T12:01:58;95254.56;;;17.82;30.28
41222;BME280;26952;42.884;23.918;2023-03-26T12:04:33;95246.19;;;18.14;29.77
41222;BME280;26952;42.884;23.918;2023-03-26T12:07:15;95246.75;;;17.81;30.36
41222;BME280;26952;42.884;23.918;2023-03-26T12:09:57;95247.31;;;17.94;32.00
41222;BME280;26952;42.884;23.918;2023-03-26T12:14:57;95212.94;;;18.61;29.88
41222;BME280;26952;42.884;23.918;2023-03-26T12:17:31;95217.50;;;18.88;29.61
41222;BME280;26952;42.884;23.918;2023-03-26T12:19:57;95219.63;;;18.12;29.94
41222;BME280;26952;42.884;23.918;2023-03-26T12:22:30;95227.53;;;17.95;28.97
41222;BME280;26952;42.884;23.918;2023-03-26T12:25:14;95217.97;;;18.11;30.99
41222;BME280;26952;42.884;23.918;2023-03-26T12:27:47;95211.22;;;18.32;31.04
41222;BME280;26952;42.884;23.918;2023-03-26T12:32:46;95220.16;;;18.60;31.48
41222;BME280;26952;42.884;23.918;2023-03-26T12:35:38;95222.78;;;19.00;30.41
41222;BME280;26952;42.884;23.918;2023-03-26T12:41:16;95217.75;;;17.66;31.32
41222;BME280;26952;42.884;23.918;2023-03-26T12:43:50;95199.25;;;17.53;31.32
41222;BME280;26952;42.884;23.918;2023-03-26T12:46:24;95214.88;;;17.38;32.65
41222;BME280;26952;42.884;23.918;2023-03-26T12:48:54;95208.13;;;17.24;31.33
41222;BME280;26952;42.884;23.918;2023-03-26T12:51:50;95202.84;;;17.47;31.25
41222;BME280;26952;42.884;23.918;2023-03-26T12:54:22;95194.59;;;17.83;31.09
41222;BME280;26952;42.884;23.918;2023-03-26T13:16:08;95165.13;;;17.83;30.41
41222;BME280;26952;42.884;23.918;2023-03-26T13:34:58;95166.66;;;17.91;29.31
41222;BME280;26952;42.884;23.918;2023-03-26T13:45:48;95166.19;;;17.59;31.29
41222;BME280;26952;42.884;23.918;2023-03-26T13:48:20;95166.34;;;17.23;30.20
41222;BME280;26952;42.884;23.918;2023-03-26T13:50:57;95160.63;;;17.08;31.90
41222;BME280;26952;42.884;23.918;2023-03-26T13:53:28;95157.06;;;17.26;31.14
41222;BME280;26952;42.884;23.918;2023-03-26T13:55:58;95127.50;;;17.21;31.07
41222;BME280;26952;42.884;23.918;2023-03-26T14:01:12;95147.97;;;17.27;30.41
41222;BME280;26952;42.884;23.918;2023-03-26T14:03:53;95169.59;;;17.25;30.42
41222;BME280;26952;42.884;23.918;2023-03-26T14:08:59;95141.44;;;17.11;31.91
41222;BME280;26952;42.884;23.918;2023-03-26T14:11:49;95154.88;;;17.34;32.36
41222;BME280;26952;42.884;23.918;2023-03-26T14:16:58;95156.44;;;17.12;32.04
41222;BME280;26952;42.884;23.918;2023-03-26T14:22:36;95144.25;;;17.16;32.19
41222;BME280;26952;42.884;23.918;2023-03-26T14:25:24;95134.72;;;17.20;32.22
41222;BME280;26952;42.884;23.918;2023-03-26T14:28:36;95147.81;;;17.10;31.85
41222;BME280;26952;42.884;23.918;2023-03-26T14:31:06;95140.03;;;17.09;31.97
41222;BME280;26952;42.884;23.918;2023-03-26T14:42:36;95126.22;;;17.23;32.27
41222;BME280;26952;42.884;23.918;2023-03-26T14:45:19;95141.56;;;17.16;31.92
41222;BME280;26952;42.884;23.918;2023-03-26T14:53:35;95132.75;;;17.27;32.92
41222;BME280;26952;42.884;23.918;2023-03-26T14:56:16;95131.13;;;17.26;33.50
41222;BME280;26952;42.884;23.918;2023-03-26T14:59:08;95128.53;;;17.08;33.55
41222;BME280;26952;42.884;23.918;2023-03-26T15:10:16;95139.41;;;16.54;34.20
41222;BME280;26952;42.884;23.918;2023-03-26T15:13:04;95143.88;;;16.42;34.87
41222;BME280;26952;42.884;23.918;2023-03-26T15:43:15;95147.81;;;16.39;35.36
41222;BME280;26952;42.884;23.918;2023-03-26T15:48:22;95150.72;;;15.84;41.07
41222;BME280;26952;42.884;23.918;2023-03-26T15:53:46;95163.31;;;15.59;41.62
41222;BME280;26952;42.884;23.918;2023-03-26T15:56:41;95166.34;;;15.38;43.48
41222;BME280;26952;42.884;23.918;2023-03-26T15:59:33;95169.16;;;14.93;45.14
41222;BME280;26952;42.884;23.918;2023-03-26T16:07:38;95166.16;;;13.95;46.67
41222;BME280;26952;42.884;23.918;2023-03-26T16:10:26;95177.88;;;13.81;47.81
41222;BME280;26952;42.884;23.918;2023-03-26T16:15:50;95166.50;;;13.35;48.73
41222;BME280;26952;42.884;23.918;2023-03-26T16:18:34;95175.94;;;13.05;49.06
41222;BME280;26952;42.884;23.918;2023-03-26T16:24:10;95163.22;;;12.74;49.31
41222;BME280;26952;42.884;23.918;2023-03-26T16:42:44;95192.88;;;11.77;53.17
41222;BME280;26952;42.884;23.918;2023-03-26T16:48:20;95195.31;;;11.44;53.80
41222;BME280;26952;42.884;23.918;2023-03-26T16:50:50;95169.81;;;11.15;54.36
41222;BME280;26952;42.884;23.918;2023-03-26T16:53:25;95187.66;;;11.28;54.25
41222;BME280;26952;42.884;23.918;2023-03-26T16:55:58;95201.69;;;11.29;54.56
41222;BME280;26952;42.884;23.918;2023-03-26T17:01:38;95189.59;;;10.92;55.40
41222;BME280;26952;42.884;23.918;2023-03-26T17:19:53;95224.84;;;10.71;56.64
41222;BME280;26952;42.884;23.918;2023-03-26T17:25:19;95228.47;;;10.70;55.71
41222;BME280;26952;42.884;23.918;2023-03-26T17:28:31;95209.31;;;10.47;56.11
41222;BME280;26952;42.884;23.918;2023-03-26T17:30:49;95236.41;;;10.49;57.10
41222;BME280;26952;42.884;23.918;2023-03-26T17:41:05;95239.56;;;10.24;59.58
41222;BME280;26952;42.884;23.918;2023-03-26T17:48:37;95232.97;;;10.34;58.19
41222;BME280;26952;42.884;23.918;2023-03-26T17:54:31;95222.91;;;10.44;58.18
41222;BME280;26952;42.884;23.918;2023-03-26T17:57:09;95214.81;;;10.31;65.50
41222;BME280;26952;42.884;23.918;2023-03-26T17:59:36;95220.75;;;10.33;61.60
41222;BME280;26952;42.884;23.918;2023-03-26T18:02:13;95215.84;;;10.30;61.91
41222;BME280;26952;42.884;23.918;2023-03-26T18:04:42;95231.78;;;10.37;63.12
41222;BME280;26952;42.884;23.918;2023-03-26T18:10:16;95236.94;;;10.24;63.74
41222;BME280;26952;42.884;23.918;2023-03-26T18:15:32;95213.88;;;10.18;63.44
41222;BME280;26952;42.884;23.918;2023-03-26T18:18:19;95207.94;;;10.16;61.99
41222;BME280;26952;42.884;23.918;2023-03-26T18:20:47;95196.53;;;10.15;61.56
41222;BME280;26952;42.884;23.918;2023-03-26T18:25:54;95188.31;;;10.25;59.84
41222;BME280;26952;42.884;23.918;2023-03-26T18:28:28;95189.31;;;10.24;60.42
41222;BME280;26952;42.884;23.918;2023-03-26T18:30:54;95201.34;;;10.26;60.58
41222;BME280;26952;42.884;23.918;2023-03-26T18:33:19;95196.88;;;10.27;60.16
41222;BME280;26952;42.884;23.918;2023-03-26T18:35:50;95193.66;;;10.31;58.91
41222;BME280;26952;42.884;23.918;2023-03-26T18:38:21;95188.56;;;10.30;59.32
41222;BME280;26952;42.884;23.918;2023-03-26T18:40:49;95189.31;;;10.24;59.73
41222;BME280;26952;42.884;23.918;2023-03-26T18:43:21;95179.56;;;10.24;60.22
41222;BME280;26952;42.884;23.918;2023-03-26T18:45:49;95175.38;;;10.15;61.06
41222;BME280;26952;42.884;23.918;2023-03-26T18:48:22;95161.78;;;10.18;59.76
41222;BME280;26952;42.884;23.918;2023-03-26T18:50:54;95156.31;;;10.20;60.54